Puerto del Rosario, Spain
Current Conditions -  °F | °C
As of 12:30 PM on Thursday 30 Oct 2014 (Local Time) from GCFV Reporting Station
Few Clouds Few Clouds  
Wind Chill: 25°   Ceiling: Unl
Heat Index: 26°   Visibility: 6mi
Dew Point: 18°   Wind: 8mph
Humidity: 65%   Direction: 60°ENE
Pressure: 29.94"   Gusts: NA
Location:  28.5°N, 13.86°W
Report Text: GCFV 301230Z 06007KT 030V100 9999 FEW025 25/18 Q1014
Loading
Personal Weather Stations






























Interactive Weather Map
Tropical Storm Tracking
New forecast layout! Learn more

10-Day Weather Forecast

Advertisements
Track Severe Weather on mobile